createdAt,value
2017-11-15T00:00:00.013Z,102113
2017-11-15T00:02:28.194Z,102112
2017-11-15T00:04:56.503Z,102113
2017-11-15T00:07:24.699Z,102117
2017-11-15T00:09:52.921Z,102111
2017-11-15T00:12:21.976Z,102116
2017-11-15T00:14:50.168Z,102117
2017-11-15T00:17:18.373Z,102118
2017-11-15T00:19:47.348Z,102120
2017-11-15T00:22:34.068Z,102125
2017-11-15T00:25:03.026Z,102131
2017-11-15T00:27:31.246Z,102135
2017-11-15T00:30:00.182Z,102143
2017-11-15T00:32:28.367Z,102142
2017-11-15T00:34:56.578Z,102145
2017-11-15T00:37:25.550Z,102149
2017-11-15T00:39:53.749Z,102157
2017-11-15T00:42:22.708Z,102148
2017-11-15T00:44:50.916Z,102155
2017-11-15T00:47:19.879Z,102146
2017-11-15T00:49:48.111Z,102149
2017-11-15T00:52:16.333Z,102141
2017-11-15T00:54:44.538Z,102147
2017-11-15T00:57:12.769Z,102144
2017-11-15T00:59:40.981Z,102142
2017-11-15T01:02:09.246Z,102139
2017-11-15T01:04:38.204Z,102139
2017-11-15T01:07:06.495Z,102144
2017-11-15T01:09:34.675Z,102141
2017-11-15T01:12:03.650Z,102138
2017-11-15T01:14:31.841Z,102146
2017-11-15T01:17:00.819Z,102144
2017-11-15T01:19:29.829Z,102137
2017-11-15T01:21:58.796Z,102142
2017-11-15T01:24:27.031Z,102136
2017-11-15T01:26:55.248Z,102132
2017-11-15T01:29:23.453Z,102118
2017-11-15T01:31:52.419Z,102132
2017-11-15T01:34:20.607Z,102122
2017-11-15T01:36:49.600Z,102131
2017-11-15T01:39:18.560Z,102132
2017-11-15T01:41:47.070Z,102141
2017-11-15T01:44:16.052Z,102133
2017-11-15T01:46:44.252Z,102147
2017-11-15T01:49:13.363Z,102148
2017-11-15T01:51:41.560Z,102150
2017-11-15T01:54:10.528Z,102143
2017-11-15T01:56:38.743Z,102140
2017-11-15T01:59:07.841Z,102134
2017-11-15T02:01:38.779Z,102149
2017-11-15T02:04:06.963Z,102139
2017-11-15T02:06:35.183Z,102137
2017-11-15T02:09:03.363Z,102127
2017-11-15T02:11:31.545Z,102137
2017-11-15T02:13:59.805Z,102133
2017-11-15T02:16:28.030Z,102120
2017-11-15T02:18:56.224Z,102131
2017-11-15T02:21:25.171Z,102125
2017-11-15T02:23:53.358Z,102128
2017-11-15T02:26:21.547Z,102119
2017-11-15T02:28:49.730Z,102115
2017-11-15T02:31:18.678Z,102119
2017-11-15T02:33:46.867Z,102103
2017-11-15T02:36:15.052Z,102096
2017-11-15T02:38:43.354Z,102096
2017-11-15T02:41:12.413Z,102099
2017-11-15T02:43:40.722Z,102096
2017-11-15T02:46:09.660Z,102102
2017-11-15T02:48:37.827Z,102096
2017-11-15T02:51:06.038Z,102098
2017-11-15T02:53:34.227Z,102093
2017-11-15T02:56:03.198Z,102081
2017-11-15T02:58:31.397Z,102085
2017-11-15T03:00:59.624Z,102085
2017-11-15T03:03:27.843Z,102075
2017-11-15T03:05:56.873Z,102075
2017-11-15T03:08:25.108Z,102084
2017-11-15T03:10:54.162Z,102087
2017-11-15T03:13:22.355Z,102091
2017-11-15T03:15:50.539Z,102084
2017-11-15T03:18:19.496Z,102085
2017-11-15T03:20:47.691Z,102085
2017-11-15T03:23:15.916Z,102084
2017-11-15T03:25:44.097Z,102091
2017-11-15T03:28:12.296Z,102083
2017-11-15T03:30:41.325Z,102084
2017-11-15T03:33:10.298Z,102082
2017-11-15T03:35:38.495Z,102080
2017-11-15T03:38:07.543Z,102079
2017-11-15T03:40:35.759Z,102072
2017-11-15T03:43:04.726Z,102079
2017-11-15T03:45:32.923Z,102079
2017-11-15T03:48:01.859Z,102081
2017-11-15T03:50:30.050Z,102079
2017-11-15T03:52:59.109Z,102080
2017-11-15T03:55:27.296Z,102074
2017-11-15T03:57:55.489Z,102083
2017-11-15T04:00:23.687Z,102077
2017-11-15T04:02:51.886Z,102076
2017-11-15T04:05:20.110Z,102076
2017-11-15T04:07:48.320Z,102075
2017-11-15T04:10:17.278Z,102075
2017-11-15T04:12:45.472Z,102076
2017-11-15T04:15:13.679Z,102081
2017-11-15T04:17:42.123Z,102082
2017-11-15T04:20:10.324Z,102080
2017-11-15T04:22:39.298Z,102075
2017-11-15T04:25:08.260Z,102078
2017-11-15T04:27:36.485Z,102075
2017-11-15T04:30:05.008Z,102068
2017-11-15T04:32:33.244Z,102068
2017-11-15T04:35:01.523Z,102062
2017-11-15T04:37:29.712Z,102065
2017-11-15T04:39:57.914Z,102062
2017-11-15T04:42:26.159Z,102063
2017-11-15T04:44:54.392Z,102063
2017-11-15T04:47:22.603Z,102071
2017-11-15T04:49:50.816Z,102070
2017-11-15T04:52:18.994Z,102074
2017-11-15T04:54:47.191Z,102064
2017-11-15T04:57:16.232Z,102060
2017-11-15T04:59:44.460Z,102074
2017-11-15T05:02:13.418Z,102068
2017-11-15T05:04:41.614Z,102073
2017-11-15T05:07:09.836Z,102066
2017-11-15T05:09:38.081Z,102075
2017-11-15T05:12:07.173Z,102090
2017-11-15T05:14:36.609Z,102085
2017-11-15T05:17:04.840Z,102083
2017-11-15T05:19:33.835Z,102094
2017-11-15T05:22:02.769Z,102096
2017-11-15T05:24:30.981Z,102091
2017-11-15T05:26:59.167Z,102095
2017-11-15T05:29:27.400Z,102081
2017-11-15T05:31:55.608Z,102081
2017-11-15T05:34:23.792Z,102079
2017-11-15T05:36:52.779Z,102085
2017-11-15T05:39:21.026Z,102074
2017-11-15T05:41:49.280Z,102089
2017-11-15T05:44:17.465Z,102080
2017-11-15T05:46:45.643Z,102080
2017-11-15T05:49:13.838Z,102073
2017-11-15T05:51:42.003Z,102078
2017-11-15T05:54:10.208Z,102078
2017-11-15T05:56:39.152Z,102080
2017-11-15T05:59:07.400Z,102080
2017-11-15T06:01:35.583Z,102082
2017-11-15T06:04:03.789Z,102075
2017-11-15T06:06:31.961Z,102086
2017-11-15T06:09:00.143Z,102081
2017-11-15T06:11:28.392Z,102070
2017-11-15T06:13:57.378Z,102091
2017-11-15T06:16:25.718Z,102088
2017-11-15T06:18:53.928Z,102090
2017-11-15T06:21:22.201Z,102090
2017-11-15T06:23:50.402Z,102093
2017-11-15T06:26:18.578Z,102089
2017-11-15T06:28:46.739Z,102086
2017-11-15T06:31:14.968Z,102095
2017-11-15T06:33:43.981Z,102099
2017-11-15T06:36:12.178Z,102102
2017-11-15T06:38:40.325Z,102105
2017-11-15T06:41:08.521Z,102110
2017-11-15T06:43:36.723Z,102105
2017-11-15T06:46:05.687Z,102106
2017-11-15T06:48:33.922Z,102105
2017-11-15T06:51:02.121Z,102113
2017-11-15T06:53:30.313Z,102113
2017-11-15T06:55:58.639Z,102121
2017-11-15T06:58:26.832Z,102119
2017-11-15T07:00:55.019Z,102119
2017-11-15T07:03:23.253Z,102126
2017-11-15T07:05:52.204Z,102120
2017-11-15T07:08:20.470Z,102134
2017-11-15T07:10:48.676Z,102133
2017-11-15T07:13:17.636Z,102136
2017-11-15T07:15:45.827Z,102137
2017-11-15T07:18:14.024Z,102133
2017-11-15T07:20:42.232Z,102137
2017-11-15T07:23:10.420Z,102138
2017-11-15T07:25:38.666Z,102141
2017-11-15T07:28:06.951Z,102142
2017-11-15T07:30:35.133Z,102138
2017-11-15T07:33:03.340Z,102141
2017-11-15T07:35:31.533Z,102149
2017-11-15T07:37:59.748Z,102150
2017-11-15T07:40:27.938Z,102145
2017-11-15T07:42:56.136Z,102161
2017-11-15T07:45:25.134Z,102156
2017-11-15T07:47:53.310Z,102148
2017-11-15T07:50:21.515Z,102155
2017-11-15T07:52:50.226Z,102156
2017-11-15T07:55:18.431Z,102162
2017-11-15T07:57:46.633Z,102152
2017-11-15T08:00:15.856Z,102169
2017-11-15T08:02:44.099Z,102159
2017-11-15T08:05:12.391Z,102166
2017-11-15T08:07:41.422Z,102170
2017-11-15T08:10:09.677Z,102168
2017-11-15T08:12:38.295Z,102185
2017-11-15T08:15:06.706Z,102181
2017-11-15T08:17:35.659Z,102181
2017-11-15T08:20:03.848Z,102182
2017-11-15T08:22:32.038Z,102181
2017-11-15T08:25:00.264Z,102179
2017-11-15T08:27:28.482Z,102182
2017-11-15T08:29:56.667Z,102180
2017-11-15T08:32:25.615Z,102186
2017-11-15T08:34:53.811Z,102184
2017-11-15T08:37:22.005Z,102185
2017-11-15T08:39:51.161Z,102188
2017-11-15T08:42:19.355Z,102195
2017-11-15T08:44:47.546Z,102189
2017-11-15T08:47:16.483Z,102203
2017-11-15T08:49:44.659Z,102199
2017-11-15T08:52:12.868Z,102206
2017-11-15T08:54:41.073Z,102206
2017-11-15T08:57:09.256Z,102204
2017-11-15T08:59:37.443Z,102205
2017-11-15T09:02:05.729Z,102201
2017-11-15T09:04:34.090Z,102205
2017-11-15T09:07:02.265Z,102204
2017-11-15T09:09:30.659Z,102212
2017-11-15T09:11:58.836Z,102204
2017-11-15T09:14:27.029Z,102211
2017-11-15T09:16:55.277Z,102209
2017-11-15T09:19:23.519Z,102210
2017-11-15T09:21:52.655Z,102202
2017-11-15T09:24:20.828Z,102213
2017-11-15T09:26:49.067Z,102218
2017-11-15T09:29:17.354Z,102209
2017-11-15T09:31:45.576Z,102219
2017-11-15T09:34:13.752Z,102211
2017-11-15T09:36:41.932Z,102227
2017-11-15T09:39:10.101Z,102216
2017-11-15T09:41:38.290Z,102220
2017-11-15T09:44:06.481Z,102221
2017-11-15T09:46:34.708Z,102225
2017-11-15T09:49:02.925Z,102225
2017-11-15T09:51:31.132Z,102226
2017-11-15T09:53:59.318Z,102226
2017-11-15T09:56:27.508Z,102236
2017-11-15T09:58:55.708Z,102229
2017-11-15T10:01:24.703Z,102225
2017-11-15T10:03:52.972Z,102232
2017-11-15T10:06:21.926Z,102235
2017-11-15T10:08:50.156Z,102234
2017-11-15T10:11:18.417Z,102231
2017-11-15T10:13:47.450Z,102244
2017-11-15T10:16:15.744Z,102243
2017-11-15T10:18:43.944Z,102248
2017-11-15T10:21:12.102Z,102248
2017-11-15T10:23:40.274Z,102252
2017-11-15T10:26:08.484Z,102244
2017-11-15T10:28:37.435Z,102248
2017-11-15T10:31:05.637Z,102237
2017-11-15T10:33:33.814Z,102245
2017-11-15T10:36:02.752Z,102249
2017-11-15T10:38:30.967Z,102248
2017-11-15T10:40:59.984Z,102250
2017-11-15T10:43:28.184Z,102246
2017-11-15T10:45:57.352Z,102242
2017-11-15T10:48:25.552Z,102248
2017-11-15T10:50:53.732Z,102250
2017-11-15T10:53:22.104Z,102242
2017-11-15T10:55:50.301Z,102246
2017-11-15T10:58:18.500Z,102247
2017-11-15T11:00:46.749Z,102250
2017-11-15T11:03:14.940Z,102242
2017-11-15T11:05:43.228Z,102245
2017-11-15T11:08:11.412Z,102240
2017-11-15T11:10:40.391Z,102234
2017-11-15T11:13:08.715Z,102240
2017-11-15T11:15:37.672Z,102236
2017-11-15T11:18:06.640Z,102243
2017-11-15T11:20:34.836Z,102237
2017-11-15T11:23:03.783Z,102241
2017-11-15T11:25:32.023Z,102237
2017-11-15T11:28:00.247Z,102240
2017-11-15T11:30:28.491Z,102232
2017-11-15T11:32:56.710Z,102235
2017-11-15T11:35:24.947Z,102225
2017-11-15T11:37:56.568Z,102229
2017-11-15T11:40:24.763Z,102231
2017-11-15T11:42:53.716Z,102227
2017-11-15T11:45:22.765Z,102241
2017-11-15T11:47:51.008Z,102236
2017-11-15T11:50:19.166Z,102233
2017-11-15T11:52:47.364Z,102230
2017-11-15T11:55:15.563Z,102235
2017-11-15T11:57:43.856Z,102233
2017-11-15T12:00:12.068Z,102244
2017-11-15T12:02:40.242Z,102238
2017-11-15T12:05:08.472Z,102248
2017-11-15T12:07:36.692Z,102235
2017-11-15T12:10:04.911Z,102234
2017-11-15T12:12:33.100Z,102233
2017-11-15T12:15:02.108Z,102234
2017-11-15T12:17:31.074Z,102240
2017-11-15T12:19:59.412Z,102233
2017-11-15T12:22:27.620Z,102241
2017-11-15T12:24:55.804Z,102231
2017-11-15T12:27:24.040Z,102232
2017-11-15T12:29:52.276Z,102228
2017-11-15T12:32:21.235Z,102229
2017-11-15T12:34:49.440Z,102223
2017-11-15T12:37:18.396Z,102238
2017-11-15T12:39:46.618Z,102228
2017-11-15T12:42:14.825Z,102236
2017-11-15T12:44:43.078Z,102247
2017-11-15T12:47:11.248Z,102246
2017-11-15T12:49:39.443Z,102258
2017-11-15T12:52:07.651Z,102258
2017-11-15T12:54:35.859Z,102255
2017-11-15T12:57:04.046Z,102253
2017-11-15T12:59:32.243Z,102249
2017-11-15T13:02:01.872Z,102248
2017-11-15T13:04:30.071Z,102252
2017-11-15T13:06:59.066Z,102253
2017-11-15T13:09:28.017Z,102251
2017-11-15T13:11:56.259Z,102259
2017-11-15T13:14:24.441Z,102245
2017-11-15T13:16:52.739Z,102258
2017-11-15T13:19:21.020Z,102263
2017-11-15T13:21:49.246Z,102264
2017-11-15T13:24:17.443Z,102267
2017-11-15T13:26:45.631Z,102264
2017-11-15T13:29:13.813Z,102263
2017-11-15T13:31:42.043Z,102267
2017-11-15T13:34:10.255Z,102270
2017-11-15T13:36:38.828Z,102275
2017-11-15T13:39:07.014Z,102275
2017-11-15T13:41:35.604Z,102267
2017-11-15T13:44:03.825Z,102274
2017-11-15T13:46:32.889Z,102280
2017-11-15T13:49:01.093Z,102275
2017-11-15T13:51:29.305Z,102273
2017-11-15T13:53:57.488Z,102277
2017-11-15T13:56:25.832Z,102281
2017-11-15T13:58:54.002Z,102281
2017-11-15T14:01:22.226Z,102279
2017-11-15T14:03:50.451Z,102273
2017-11-15T14:06:18.634Z,102274
2017-11-15T14:08:46.950Z,102279
2017-11-15T14:11:15.221Z,102275
2017-11-15T14:13:43.480Z,102274
2017-11-15T14:16:11.882Z,102270
2017-11-15T14:18:40.146Z,102276
2017-11-15T14:21:08.359Z,102273
2017-11-15T14:23:36.607Z,102273
2017-11-15T14:26:04.797Z,102268
2017-11-15T14:28:33.764Z,102284
2017-11-15T14:31:01.936Z,102283
2017-11-15T14:33:30.116Z,102283
2017-11-15T14:35:58.293Z,102283
2017-11-15T14:38:26.481Z,102287
2017-11-15T14:40:55.481Z,102287
2017-11-15T14:43:23.684Z,102292
2017-11-15T14:45:51.875Z,102290
2017-11-15T14:48:20.867Z,102298
2017-11-15T14:50:49.081Z,102298
2017-11-15T14:53:18.141Z,102296
2017-11-15T14:55:46.309Z,102297
2017-11-15T14:58:14.547Z,102303
2017-11-15T15:00:42.763Z,102301
2017-11-15T15:03:10.963Z,102297
2017-11-15T15:05:39.936Z,102304
2017-11-15T15:08:08.209Z,102302
2017-11-15T15:10:36.397Z,102301
2017-11-15T15:13:04.716Z,102313
2017-11-15T15:25:17.920Z,102318
2017-11-15T15:27:46.145Z,102310
2017-11-15T15:30:15.103Z,102322
2017-11-15T15:32:43.472Z,102315
2017-11-15T15:35:11.761Z,102317
2017-11-15T15:37:40.035Z,102324
2017-11-15T15:40:09.751Z,102322
2017-11-15T15:42:37.937Z,102335
2017-11-15T15:45:06.275Z,102328
2017-11-15T15:47:34.488Z,102325
2017-11-15T15:50:02.769Z,102329
2017-11-15T15:52:31.734Z,102323
2017-11-15T15:54:59.973Z,102325
2017-11-15T15:57:28.201Z,102333
2017-11-15T15:59:57.159Z,102333
2017-11-15T16:02:25.384Z,102335
2017-11-15T16:04:53.577Z,102336
2017-11-15T16:07:21.842Z,102332
2017-11-15T16:09:50.059Z,102332
2017-11-15T16:12:18.252Z,102329
2017-11-15T16:14:46.451Z,102321
2017-11-15T16:17:14.682Z,102326
2017-11-15T16:19:42.892Z,102332
2017-11-15T16:22:11.865Z,102333
2017-11-15T16:24:40.133Z,102332
2017-11-15T16:27:08.345Z,102331
2017-11-15T16:29:37.335Z,102333
2017-11-15T16:32:06.440Z,102332
2017-11-15T16:34:34.639Z,102330
2017-11-15T16:37:02.864Z,102335
2017-11-15T16:39:31.896Z,102338
2017-11-15T16:42:00.124Z,102339
2017-11-15T16:44:28.325Z,102347
2017-11-15T16:46:56.516Z,102354
2017-11-15T16:49:24.696Z,102352
2017-11-15T16:51:52.866Z,102341
2017-11-15T16:54:21.083Z,102349
2017-11-15T16:56:50.054Z,102349
2017-11-15T16:59:18.247Z,102353
2017-11-15T17:01:46.453Z,102356
2017-11-15T17:04:15.441Z,102354
2017-11-15T17:06:44.413Z,102351
2017-11-15T17:09:12.614Z,102373
2017-11-15T17:11:40.793Z,102364
2017-11-15T17:14:09.931Z,102358
2017-11-15T17:16:38.160Z,102362
2017-11-15T17:19:06.355Z,102366
2017-11-15T17:21:34.541Z,102358
2017-11-15T17:24:02.718Z,102364
2017-11-15T17:26:30.918Z,102356
2017-11-15T17:28:59.133Z,102358
2017-11-15T17:31:27.332Z,102358
2017-11-15T17:33:55.524Z,102359
2017-11-15T17:36:23.757Z,102357
2017-11-15T17:38:51.933Z,102360
2017-11-15T17:41:20.123Z,102372
2017-11-15T17:43:48.325Z,102362
2017-11-15T17:46:16.559Z,102365
2017-11-15T17:51:39.147Z,102373
2017-11-15T17:54:07.503Z,102364
2017-11-15T17:56:35.740Z,102361
2017-11-15T17:59:04.703Z,102364
2017-11-15T18:01:32.905Z,102368
2017-11-15T18:04:02.001Z,102382
2017-11-15T18:06:30.981Z,102374
2017-11-15T18:08:59.988Z,102372
2017-11-15T18:11:28.981Z,102367
2017-11-15T18:13:57.204Z,102369
2017-11-15T18:16:25.399Z,102373
2017-11-15T18:18:54.040Z,102370
2017-11-15T18:21:22.323Z,102376
2017-11-15T18:23:50.516Z,102370
2017-11-15T18:26:18.732Z,102371
2017-11-15T18:28:47.720Z,102381
2017-11-15T18:31:16.713Z,102382
2017-11-15T18:33:44.931Z,102384
2017-11-15T18:36:13.894Z,102386
2017-11-15T18:38:42.166Z,102388
2017-11-15T18:41:11.389Z,102386
2017-11-15T18:43:39.587Z,102384
2017-11-15T18:46:07.789Z,102382
2017-11-15T18:48:36.739Z,102372
2017-11-15T18:51:04.986Z,102381
2017-11-15T18:53:33.226Z,102385
2017-11-15T18:56:02.197Z,102397
2017-11-15T18:58:30.446Z,102397
2017-11-15T19:00:58.635Z,102398
2017-11-15T19:03:26.857Z,102397
2017-11-15T19:05:55.108Z,102398
2017-11-15T19:08:23.400Z,102397
2017-11-15T19:10:52.375Z,102404
2017-11-15T19:13:20.581Z,102416
2017-11-15T19:15:48.792Z,102411
2017-11-15T19:18:17.074Z,102406
2017-11-15T19:20:45.348Z,102411
2017-11-15T19:23:13.540Z,102413
2017-11-15T19:25:41.818Z,102411
2017-11-15T19:28:10.399Z,102413
2017-11-15T19:30:38.814Z,102416
2017-11-15T19:33:07.056Z,102422
2017-11-15T19:35:35.341Z,102417
2017-11-15T19:38:03.579Z,102419
2017-11-15T19:40:31.938Z,102421
2017-11-15T19:43:00.211Z,102413
2017-11-15T19:45:28.585Z,102412
2017-11-15T19:47:56.866Z,102412
2017-11-15T19:50:25.156Z,102413
2017-11-15T19:52:53.387Z,102407
2017-11-15T19:55:22.403Z,102409
2017-11-15T19:57:50.666Z,102402
2017-11-15T20:00:18.880Z,102408
2017-11-15T20:02:47.104Z,102409
2017-11-15T20:05:15.323Z,102422
2017-11-15T20:07:43.549Z,102417
2017-11-15T20:10:12.686Z,102414
2017-11-15T20:12:41.053Z,102418
2017-11-15T20:15:09.291Z,102422
2017-11-15T20:17:38.292Z,102406
2017-11-15T20:20:06.609Z,102404
2017-11-15T20:22:34.914Z,102413
2017-11-15T20:25:03.213Z,102410
2017-11-15T20:27:32.362Z,102407
2017-11-15T20:30:00.640Z,102409
2017-11-15T20:32:28.863Z,102409
2017-11-15T20:34:57.108Z,102405
2017-11-15T20:37:25.299Z,102403
2017-11-15T20:39:54.265Z,102402
2017-11-15T20:42:22.592Z,102407
2017-11-15T20:44:50.862Z,102398
2017-11-15T20:47:19.062Z,102411
2017-11-15T20:49:47.312Z,102405
2017-11-15T20:52:15.524Z,102402
2017-11-15T20:54:43.772Z,102404
2017-11-15T20:57:12.082Z,102404
2017-11-15T20:59:40.341Z,102411
2017-11-15T21:02:08.642Z,102409
2017-11-15T21:04:36.847Z,102408
2017-11-15T21:07:06.664Z,102413
2017-11-15T21:09:34.856Z,102411
2017-11-15T21:12:03.096Z,102417
2017-11-15T21:14:32.136Z,102414
2017-11-15T21:17:00.478Z,102409
2017-11-15T21:19:29.440Z,102412
2017-11-15T21:21:58.625Z,102414
2017-11-15T21:24:26.863Z,102412
2017-11-15T21:26:55.174Z,102404
2017-11-15T21:29:23.388Z,102412
2017-11-15T21:31:52.403Z,102410
2017-11-15T21:34:20.635Z,102407
2017-11-15T21:36:48.876Z,102403
2017-11-15T21:39:17.103Z,102394
2017-11-15T21:41:46.103Z,102397
2017-11-15T21:44:14.355Z,102397
2017-11-15T21:46:42.547Z,102396
2017-11-15T21:49:11.511Z,102392
2017-11-15T21:51:39.854Z,102398
2017-11-15T21:54:08.095Z,102393
2017-11-15T21:56:36.284Z,102397
2017-11-15T21:59:04.500Z,102392
2017-11-15T22:01:32.712Z,102391
2017-11-15T22:04:00.928Z,102397
2017-11-15T22:06:29.159Z,102389
2017-11-15T22:08:58.217Z,102396
2017-11-15T22:11:26.406Z,102384
2017-11-15T22:13:55.387Z,102377
2017-11-15T22:16:23.559Z,102381
2017-11-15T22:18:51.785Z,102372
2017-11-15T22:21:20.011Z,102378
2017-11-15T22:23:48.224Z,102372
2017-11-15T22:26:17.215Z,102373
2017-11-15T22:28:45.385Z,102383
2017-11-15T22:31:13.605Z,102386
2017-11-15T22:33:41.848Z,102377
2017-11-15T22:36:10.074Z,102385
2017-11-15T22:38:39.353Z,102376
2017-11-15T22:41:07.556Z,102385
2017-11-15T22:43:36.557Z,102388
2017-11-15T22:46:04.925Z,102388
2017-11-15T22:48:33.908Z,102393
2017-11-15T22:51:03.231Z,102390
2017-11-15T22:53:31.434Z,102391
2017-11-15T22:55:59.815Z,102398
2017-11-15T22:58:28.086Z,102397
2017-11-15T23:00:56.340Z,102394
2017-11-15T23:03:24.576Z,102396
2017-11-15T23:05:54.133Z,102401
